Time;durP1;ratioP1;P1;durP2;ratioP2;P2;SDS_P1;SDS_P2;PMS_P1;PMS_P2;Temp;Humidity;BMP_temperature;BMP_pressure;BME280_temperature;BME280_humidity;BME280_pressure;Samples;Min_cycle;Max_cycle;Signal;HPM_P1;HPM_P2
2023/01/27 00:02:12;;;;;;;2.83;2.40;;;12.60;63.80;;;;;;5091846;28;20052;-75
2023/01/27 00:04:39;;;;;;;3.92;2.47;;;12.80;57.00;;;;;;5092527;28;20134;-75
2023/01/27 00:07:06;;;;;;;3.63;2.50;;;12.80;56.90;;;;;;5091409;28;20056;-75
2023/01/27 00:09:32;;;;;;;3.00;2.53;;;13.70;65.20;;;;;;5093198;28;20138;-75
2023/01/27 00:14:44;;;;;;;4.75;2.78;;;13.10;57.10;;;;;;5092241;28;20452;-75
2023/01/27 00:17:11;;;;;;;3.00;2.35;;;12.80;57.00;;;;;;5092036;28;20131;-75
2023/01/27 00:19:38;;;;;;;4.47;2.38;;;12.70;56.90;;;;;;5092200;28;20508;-75
2023/01/27 00:24:49;;;;;;;3.17;2.20;;;12.90;63.70;;;;;;5092043;28;20048;-75
2023/01/27 00:27:15;;;;;;;3.70;2.30;;;13.20;57.30;;;;;;5092065;28;20123;-76
2023/01/27 00:29:42;;;;;;;3.05;2.47;;;12.80;57.00;;;;;;5091740;28;20140;-75
2023/01/27 00:34:55;;;;;;;3.60;2.40;;;12.70;64.70;;;;;;5088448;28;20143;-76
2023/01/27 00:37:22;;;;;;;2.90;2.20;;;12.80;57.00;;;;;;5083863;28;20131;-75
2023/01/27 00:39:49;;;;;;;3.17;2.00;;;12.80;57.00;;;;;;5091543;28;20135;-75
2023/01/27 00:42:16;;;;;;;3.58;2.10;;;12.70;56.90;;;;;;5091366;28;20123;-75
2023/01/27 00:45:47;;;;;;;2.72;1.88;;;12.80;57.00;;;;;;5091379;28;20110;-75
2023/01/27 00:47:30;;;;;;;3.00;2.08;;;12.70;57.00;;;;;;5091294;28;20048;-75
2023/01/27 00:49:57;;;;;;;3.78;2.20;;;12.80;57.10;;;;;;5090938;28;20143;-75
2023/01/27 00:52:24;;;;;;;2.33;1.90;;;11.70;64.30;;;;;;5091164;28;20127;-76
2023/01/27 00:54:51;;;;;;;3.13;2.10;;;;;;;;;;5091600;28;20047;-76
2023/01/27 00:57:18;;;;;;;3.63;2.47;;;12.70;64.30;;;;;;5091244;28;20404;-75
2023/01/27 00:59:45;;;;;;;3.28;2.03;;;12.80;57.10;;;;;;5091614;28;20135;-75
2023/01/27 01:02:11;;;;;;;3.28;2.05;;;12.70;57.00;;;;;;5090893;28;20098;-75
2023/01/27 01:04:39;;;;;;;2.60;1.90;;;12.60;64.60;;;;;;5091008;28;20048;-76
2023/01/27 01:07:06;;;;;;;2.78;1.80;;;12.90;64.60;;;;;;5091226;28;20552;-75
2023/01/27 01:09:33;;;;;;;4.30;1.90;;;12.80;57.10;;;;;;5090930;28;20088;-76
2023/01/27 01:11:59;;;;;;;2.75;1.90;;;12.80;57.00;;;;;;5091129;28;20054;-75
2023/01/27 01:14:26;;;;;;;2.00;1.77;;;11.90;64.10;;;;;;5091310;28;20055;-75
2023/01/27 01:16:55;;;;;;;2.42;1.83;;;12.80;57.00;;;;;;5090900;28;20062;-75
2023/01/27 01:19:21;;;;;;;3.97;1.92;;;12.80;57.00;;;;;;5071003;28;20060;-75
2023/01/27 01:21:49;;;;;;;2.50;1.95;;;12.80;57.00;;;;;;5090983;28;20054;-75
2023/01/27 01:24:16;;;;;;;2.55;1.75;;;12.80;57.00;;;;;;5090674;28;20156;-75
2023/01/27 01:26:43;;;;;;;2.30;1.67;;;12.90;64.70;;;;;;5091218;28;20143;-76
2023/01/27 01:29:09;;;;;;;2.83;1.75;;;13.40;57.30;;;;;;5091074;28;20143;-74
2023/01/27 01:31:36;;;;;;;2.50;1.75;;;12.80;57.00;;;;;;5090850;28;20048;-75
2023/01/27 01:34:03;;;;;;;1.98;1.50;;;12.70;64.30;;;;;;5090641;28;20451;-75
2023/01/27 01:36:29;;;;;;;2.38;1.50;;;13.20;57.20;;;;;;5090360;28;20046;-75
2023/01/27 01:38:58;;;;;;;2.55;1.90;;;13.80;57.50;;;;;;5090987;28;20145;-75
2023/01/27 01:41:24;;;;;;;2.33;1.60;;;12.80;56.90;;;;;;5090552;28;20051;-76
2023/01/27 01:43:51;;;;;;;2.53;1.65;;;12.90;64.30;;;;;;5075616;28;20051;-75
2023/01/27 01:46:18;;;;;;;2.20;1.60;;;12.80;57.00;;;;;;5074223;28;20044;-75
2023/01/27 01:48:46;;;;;;;3.10;1.63;;;12.80;56.90;;;;;;5085593;28;20056;-75
2023/01/27 01:51:14;;;;;;;2.15;1.40;;;12.80;56.90;;;;;;5094859;28;20056;-75
2023/01/27 01:53:43;;;;;;;2.20;1.50;;;12.80;56.90;;;;;;5094800;28;20139;-75
2023/01/27 01:56:13;;;;;;;2.17;1.48;;;12.70;65.10;;;;;;5094053;28;20130;-75
2023/01/27 01:58:40;;;;;;;1.85;1.58;;;12.80;56.90;;;;;;5094762;28;20491;-75
2023/01/27 02:01:07;;;;;;;1.92;1.52;;;12.80;57.00;;;;;;5094837;28;20135;-75
2023/01/27 02:03:34;;;;;;;2.28;1.50;;;13.00;64.90;;;;;;5094490;28;20552;-75
2023/01/27 02:06:01;;;;;;;1.70;1.45;;;12.80;57.00;;;;;;5094644;28;20127;-75
2023/01/27 02:08:29;;;;;;;1.63;1.50;;;13.30;57.30;;;;;;5094153;28;20048;-75
2023/01/27 02:10:55;;;;;;;2.67;1.60;;;12.80;57.00;;;;;;5093932;28;20552;-76
2023/01/27 02:13:24;;;;;;;1.38;1.27;;;12.70;64.80;;;;;;5094074;28;20058;-76
2023/01/27 02:15:50;;;;;;;1.75;1.40;;;12.70;64.80;;;;;;5094083;28;20051;-75
2023/01/27 02:18:17;;;;;;;1.55;1.38;;;13.90;57.60;;;;;;5094404;28;20113;-75
2023/01/27 02:20:44;;;;;;;3.08;1.50;;;12.90;63.90;;;;;;5094088;28;20052;-75
2023/01/27 02:23:16;;;;;;;1.60;1.33;;;12.80;57.00;;;;;;5093979;28;20186;-75
2023/01/27 02:25:51;;;;;;;2.30;1.20;;;12.80;57.00;;;;;;5093417;28;20726;-76
2023/01/27 02:28:18;;;;;;;;;;;13.40;57.30;;;;;;5094481;28;20047;-76
2023/01/27 02:30:45;;;;;;;2.20;1.50;;;13.20;64.30;;;;;;5094080;28;19920;-75
2023/01/27 02:33:12;;;;;;;1.70;1.40;;;12.70;57.10;;;;;;5094067;28;20407;-75
2023/01/27 02:35:41;;;;;;;1.67;1.30;;;12.80;57.10;;;;;;5093771;28;20056;-75
2023/01/27 02:38:08;;;;;;;1.42;1.25;;;12.70;57.00;;;;;;5093603;28;20062;-75
2023/01/27 02:40:34;;;;;;;2.20;1.30;;;12.20;63.40;;;;;;5092786;28;20126;-75
2023/01/27 02:43:02;;;;;;;1.58;1.20;;;13.00;64.70;;;;;;5093400;28;20054;-76
2023/01/27 02:45:29;;;;;;;1.50;1.30;;;12.90;64.50;;;;;;5092885;28;20114;-76
2023/01/27 02:47:56;;;;;;;1.55;1.17;;;12.80;57.10;;;;;;5093875;28;20056;-75
2023/01/27 02:50:22;;;;;;;1.55;1.30;;;12.80;57.00;;;;;;5093092;28;20055;-75
2023/01/27 02:52:49;;;;;;;1.70;1.30;;;12.80;64.50;;;;;;5093477;28;20054;-75
2023/01/27 02:55:16;;;;;;;1.70;1.30;;;12.30;65.00;;;;;;5092905;28;20135;-75
2023/01/27 02:57:43;;;;;;;2.55;1.40;;;12.80;57.00;;;;;;5093384;28;20054;-75
2023/01/27 03:00:13;;;;;;;1.20;1.10;;;12.70;64.60;;;;;;5093739;28;20471;-75
2023/01/27 03:02:39;;;;;;;1.92;1.30;;;12.80;57.00;;;;;;5089266;28;20455;-76
2023/01/27 03:05:06;;;;;;;2.47;1.40;;;12.80;57.00;;;;;;5072926;28;20048;-75
2023/01/27 03:07:33;;;;;;;1.60;1.30;;;12.80;57.00;;;;;;5072947;28;20131;-75
2023/01/27 03:10:00;;;;;;;1.70;1.30;;;12.70;64.30;;;;;;5073060;28;20052;-76
2023/01/27 03:12:26;;;;;;;1.92;1.20;;;12.80;57.00;;;;;;5072968;28;20040;-75
2023/01/27 03:20:23;;;;;;;1.25;1.00;;;12.80;57.00;;;;;;5092632;28;20086;-76
2023/01/27 03:22:50;;;;;;;2.63;1.55;;;;;;;;;;5092614;28;20079;-75
2023/01/27 03:25:16;;;;;;;2.03;1.20;;;12.80;65.10;;;;;;5093045;28;20135;-76
2023/01/27 03:27:43;;;;;;;1.90;1.10;;;12.80;57.00;;;;;;5093054;28;20135;-75
2023/01/27 03:30:11;;;;;;;1.17;1.08;;;12.90;64.30;;;;;;5093146;28;20154;-75
2023/01/27 03:32:45;;;;;;;1.20;1.10;;;12.80;56.90;;;;;;5091600;28;20481;-75
2023/01/27 03:35:13;;;;;;;2.22;1.35;;;12.80;56.90;;;;;;5092743;28;20048;-75
2023/01/27 03:48:38;;;;;;;2.72;1.08;;;12.80;57.00;;;;;;5091833;28;20056;-75
2023/01/27 03:51:05;;;;;;;1.30;1.00;;;12.90;64.00;;;;;;5092646;28;20058;-75
2023/01/27 03:53:32;;;;;;;1.38;1.10;;;12.60;64.80;;;;;;5092231;28;20052;-75
2023/01/27 03:55:59;;;;;;;1.65;1.10;;;12.90;64.70;;;;;;5092417;28;20051;-75
2023/01/27 03:58:27;;;;;;;1.90;1.17;;;12.80;56.90;;;;;;5092220;28;20055;-75
2023/01/27 04:00:54;;;;;;;1.50;1.02;;;13.30;64.60;;;;;;5091525;28;20052;-75
2023/01/27 04:08:53;;;;;;;0.82;0.82;;;12.80;56.90;;;;;;5091957;28;20485;-76
2023/01/27 04:14:04;;;;;;;1.10;1.00;;;12.70;63.80;;;;;;5092118;28;20043;-75
2023/01/27 04:16:31;;;;;;;1.20;1.00;;;13.10;57.00;;;;;;5091384;28;20052;-76
2023/01/27 04:18:57;;;;;;;1.83;1.00;;;12.80;56.80;;;;;;5091666;28;20134;-76
2023/01/27 04:21:26;;;;;;;1.10;1.00;;;12.80;56.80;;;;;;5091825;28;20055;-75
2023/01/27 04:23:52;;;;;;;1.08;0.98;;;12.80;56.80;;;;;;5091591;28;20070;-75
2023/01/27 04:26:19;;;;;;;1.42;1.00;;;12.80;56.80;;;;;;5091959;28;20059;-76
2023/01/27 04:28:46;;;;;;;1.55;1.05;;;12.10;64.00;;;;;;5091991;28;20147;-75
2023/01/27 04:31:13;;;;;;;1.70;0.80;;;12.80;56.90;;;;;;5072187;28;20127;-76
2023/01/27 04:33:40;;;;;;;0.85;0.82;;;12.80;64.80;;;;;;5071077;28;20056;-75
2023/01/27 04:36:07;;;;;;;1.10;1.00;;;13.70;64.70;;;;;;5073743;28;20414;-75
2023/01/27 04:38:35;;;;;;;1.10;0.90;;;12.80;56.80;;;;;;5091535;28;20139;-75
2023/01/27 04:41:02;;;;;;;1.15;0.90;;;13.30;57.10;;;;;;5091753;28;20155;-75
2023/01/27 04:43:28;;;;;;;1.33;0.90;;;12.70;64.00;;;;;;5091177;28;20051;-75
2023/01/27 04:45:55;;;;;;;1.15;0.95;;;13.50;57.20;;;;;;5082880;28;20056;-75
2023/01/27 04:48:22;;;;;;;1.63;1.10;;;12.90;56.90;;;;;;5071169;28;20053;-75
2023/01/27 04:50:48;;;;;;;0.93;0.90;;;12.80;56.80;;;;;;5071272;28;20056;-75
2023/01/27 04:53:15;;;;;;;1.10;1.00;;;12.70;65.10;;;;;;5070995;28;20041;-75
2023/01/27 04:55:45;;;;;;;1.63;0.98;;;12.70;64.70;;;;;;5071289;28;20492;-75
2023/01/27 04:58:12;;;;;;;1.48;1.00;;;12.80;56.80;;;;;;5071246;28;20497;-75
2023/01/27 05:00:39;;;;;;;1.63;1.08;;;12.20;63.20;;;;;;5071058;28;20052;-76
2023/01/27 05:03:08;;;;;;;1.23;0.90;;;12.80;56.80;;;;;;5070687;28;20063;-75
2023/01/27 05:05:35;;;;;;;1.15;0.95;;;12.80;56.80;;;;;;5086478;28;20101;-76
2023/01/27 05:08:03;;;;;;;1.02;0.90;;;11.70;64.00;;;;;;5091390;28;20056;-75
2023/01/27 05:10:29;;;;;;;1.58;1.10;;;13.00;63.70;;;;;;5092120;28;20131;-75
2023/01/27 05:12:57;;;;;;;1.50;1.00;;;12.80;56.80;;;;;;5091200;28;20052;-75
2023/01/27 05:15:24;;;;;;;1.40;1.00;;;;;;;;;;5090365;28;20047;-75
2023/01/27 05:17:51;;;;;;;1.08;0.90;;;12.80;56.30;;;;;;5090715;28;20048;-75
2023/01/27 05:20:18;;;;;;;1.63;0.98;;;12.80;56.80;;;;;;5091200;28;20062;-76
2023/01/27 05:22:45;;;;;;;1.15;0.80;;;12.80;65.10;;;;;;5090268;28;20074;-75
2023/01/27 05:25:11;;;;;;;1.15;0.98;;;12.90;64.20;;;;;;5091259;28;20055;-75
2023/01/27 05:27:38;;;;;;;1.77;1.08;;;12.80;56.80;;;;;;5091044;28;20203;-76
2023/01/27 05:30:08;;;;;;;0.95;0.85;;;12.80;56.80;;;;;;5090530;28;20054;-75
2023/01/27 05:32:35;;;;;;;1.27;0.98;;;12.80;56.80;;;;;;5090447;28;20048;-75
2023/01/27 05:35:01;;;;;;;1.23;1.02;;;12.80;56.80;;;;;;5091110;28;20105;-75
2023/01/27 05:37:28;;;;;;;1.00;0.90;;;;;;;;;;5090672;28;20541;-75
2023/01/27 05:39:55;;;;;;;1.40;1.00;;;12.80;56.30;;;;;;5091049;28;20404;-75
2023/01/27 05:42:22;;;;;;;1.00;0.90;;;12.80;56.90;;;;;;5089731;28;20131;-75
2023/01/27 05:44:48;;;;;;;1.55;0.95;;;14.10;65.80;;;;;;5090554;28;20477;-75
2023/01/27 05:47:16;;;;;;;1.13;0.80;;;12.70;64.80;;;;;;5090982;28;20051;-75
2023/01/27 05:49:43;;;;;;;1.60;0.98;;;12.80;56.80;;;;;;5090871;28;20131;-76
2023/01/27 05:52:10;;;;;;;0.80;0.80;;;12.70;63.50;;;;;;5090865;28;20135;-75
2023/01/27 05:54:36;;;;;;;0.80;0.80;;;12.40;64.40;;;;;;5090642;28;20486;-75
2023/01/27 05:57:03;;;;;;;1.50;0.80;;;12.80;56.80;;;;;;5089746;28;20058;-75
2023/01/27 05:59:30;;;;;;;1.38;1.00;;;12.80;56.80;;;;;;5079410;28;20405;-75
2023/01/27 06:01:57;;;;;;;1.33;0.95;;;12.90;64.40;;;;;;5070388;28;20062;-75
2023/01/27 06:04:25;;;;;;;1.10;1.00;;;12.80;56.90;;;;;;5070304;28;20059;-75
2023/01/27 06:06:51;;;;;;;0.88;0.85;;;12.80;56.80;;;;;;5070483;28;20143;-76
2023/01/27 06:09:18;;;;;;;1.30;0.90;;;12.80;56.80;;;;;;5070398;28;20486;-75
2023/01/27 06:11:46;;;;;;;1.00;0.80;;;13.20;57.10;;;;;;5078881;28;20123;-76
2023/01/27 06:14:12;;;;;;;2.05;0.88;;;13.40;57.20;;;;;;5075045;28;20040;-75
2023/01/27 06:16:39;;;;;;;1.05;0.80;;;12.80;56.80;;;;;;5070247;28;20090;-75
2023/01/27 06:19:06;;;;;;;0.93;0.90;;;12.80;56.90;;;;;;5070378;28;20063;-76
2023/01/27 06:21:34;;;;;;;0.93;0.88;;;12.80;56.80;;;;;;5088959;28;20484;-75
2023/01/27 06:24:00;;;;;;;1.45;0.88;;;12.80;56.80;;;;;;5089822;28;20044;-76
2023/01/27 06:26:27;;;;;;;0.82;0.80;;;12.80;56.80;;;;;;5090685;28;20060;-75
2023/01/27 06:28:56;;;;;;;1.00;0.90;;;12.20;64.80;;;;;;5089702;28;20052;-75
2023/01/27 06:31:22;;;;;;;0.90;0.80;;;12.80;56.80;;;;;;5093455;28;20051;-76
2023/01/27 06:33:49;;;;;;;0.85;0.80;;;13.40;57.10;;;;;;5093977;28;20134;-75
2023/01/27 06:36:17;;;;;;;1.92;1.08;;;12.90;64.30;;;;;;5093696;28;20050;-75
2023/01/27 06:38:45;;;;;;;1.00;0.90;;;12.80;56.80;;;;;;5094060;28;20054;-75
2023/01/27 06:41:11;;;;;;;0.70;0.70;;;12.80;56.70;;;;;;5094010;28;20090;-75
2023/01/27 06:43:38;;;;;;;1.15;0.90;;;12.90;64.60;;;;;;5092992;28;20131;-75
2023/01/27 06:46:05;;;;;;;0.75;0.73;;;12.80;56.70;;;;;;5093695;28;20135;-75
2023/01/27 06:48:32;;;;;;;1.10;0.90;;;12.80;56.70;;;;;;5093918;28;20083;-75
2023/01/27 06:50:58;;;;;;;0.80;0.80;;;13.30;65.00;;;;;;5093793;28;20139;-75
2023/01/27 06:53:25;;;;;;;0.82;0.80;;;13.70;57.20;;;;;;5093691;28;20127;-75
2023/01/27 06:55:56;;;;;;;0.80;0.80;;;13.00;56.80;;;;;;5094002;28;20127;-75
2023/01/27 06:58:23;;;;;;;1.30;0.80;;;13.50;57.10;;;;;;5093905;28;20051;-75
2023/01/27 07:00:49;;;;;;;0.90;0.90;;;13.80;57.30;;;;;;5093765;28;20044;-75
2023/01/27 07:03:16;;;;;;;1.20;0.93;;;;;;;;;;5093352;28;20048;-75
2023/01/27 07:05:43;;;;;;;2.38;1.00;;;12.80;56.20;;;;;;5093546;28;20161;-75
2023/01/27 07:08:11;;;;;;;0.98;0.90;;;13.10;56.90;;;;;;5093348;28;20138;-76
2023/01/27 07:10:38;;;;;;;1.55;0.90;;;13.20;63.80;;;;;;5092772;28;20159;-75
2023/01/27 07:13:07;;;;;;;1.08;0.90;;;12.70;65.00;;;;;;5092971;28;20044;-76
2023/01/27 07:15:33;;;;;;;0.77;0.70;;;12.80;56.80;;;;;;5093441;28;20549;-75
2023/01/27 07:18:00;;;;;;;0.90;0.80;;;12.80;56.80;;;;;;5094459;28;20055;-75
2023/01/27 07:20:27;;;;;;;0.93;0.85;;;12.10;63.80;;;;;;5093282;28;20111;-75
2023/01/27 07:22:56;;;;;;;1.38;1.25;;;12.80;56.80;;;;;;5092727;28;20044;-75
2023/01/27 07:25:23;;;;;;;1.48;0.90;;;13.70;57.20;;;;;;5092158;28;20127;-75
2023/01/27 07:27:49;;;;;;;1.38;1.05;;;12.80;64.80;;;;;;5093362;28;20052;-75
2023/01/27 07:30:18;;;;;;;3.17;0.90;;;14.00;57.40;;;;;;5093066;28;20139;-75
2023/01/27 07:32:44;;;;;;;1.10;1.00;;;12.80;56.70;;;;;;5092605;28;20484;-75
2023/01/27 07:35:11;;;;;;;1.98;1.00;;;12.80;56.80;;;;;;5092709;28;20131;-75
2023/01/27 07:37:38;;;;;;;1.25;0.80;;;12.90;56.80;;;;;;5092968;28;20281;-75
2023/01/27 07:40:05;;;;;;;1.13;0.82;;;12.90;63.50;;;;;;5092471;28;20074;-75
2023/01/27 07:42:32;;;;;;;0.80;0.80;;;12.80;56.80;;;;;;5092430;28;20703;-75
2023/01/27 07:44:59;;;;;;;1.02;0.82;;;12.60;64.10;;;;;;5092552;28;20075;-75
2023/01/27 07:47:27;;;;;;;0.90;0.80;;;12.80;56.80;;;;;;5092589;28;20052;-75
2023/01/27 07:49:53;;;;;;;1.33;0.85;;;12.80;56.80;;;;;;5092402;28;20416;-75
2023/01/27 07:52:20;;;;;;;0.93;0.80;;;12.60;64.50;;;;;;5092414;28;20157;-75
2023/01/27 07:54:47;;;;;;;1.02;0.90;;;12.80;56.80;;;;;;5092095;28;20054;-75
2023/01/27 07:57:13;;;;;;;2.00;1.10;;;13.10;57.00;;;;;;5092629;28;20048;-76
2023/01/27 07:59:40;;;;;;;1.25;0.90;;;12.90;64.80;;;;;;5092422;28;20062;-75
2023/01/27 08:02:08;;;;;;;1.33;0.90;;;13.40;57.10;;;;;;5092417;28;20058;-75
2023/01/27 08:04:37;;;;;;;1.63;0.90;;;12.80;56.80;;;;;;5092109;28;20559;-75
2023/01/27 08:07:03;;;;;;;1.45;0.90;;;12.80;56.80;;;;;;5092481;28;20056;-75
2023/01/27 08:09:30;;;;;;;1.17;0.80;;;12.80;56.80;;;;;;5091545;28;20048;-75
2023/01/27 08:11:57;;;;;;;1.67;0.90;;;13.70;65.10;;;;;;5091863;28;20123;-75
2023/01/27 08:14:23;;;;;;;1.02;0.80;;;12.80;56.70;;;;;;5092015;28;20044;-75
2023/01/27 08:16:50;;;;;;;0.90;0.90;;;12.50;63.70;;;;;;5092237;28;20568;-75
2023/01/27 08:19:17;;;;;;;1.38;0.90;;;12.10;63.70;;;;;;5091607;28;20054;-75
2023/01/27 08:21:45;;;;;;;0.88;0.77;;;12.80;56.70;;;;;;5091252;28;20580;-75
2023/01/27 08:24:12;;;;;;;1.00;0.90;;;12.80;56.70;;;;;;5092017;28;20048;-75
2023/01/27 08:26:39;;;;;;;1.88;1.02;;;;;;;;;;5091992;28;20135;-75
2023/01/27 08:29:05;;;;;;;1.45;0.95;;;12.80;56.20;;;;;;5092148;28;20044;-75
2023/01/27 08:31:32;;;;;;;1.20;0.98;;;12.80;56.70;;;;;;5091601;28;20130;-75
2023/01/27 08:33:59;;;;;;;1.48;0.95;;;12.70;60.70;;;;;;5091805;28;20407;-75
2023/01/27 08:36:25;;;;;;;1.00;0.90;;;12.70;64.60;;;;;;5090765;28;20048;-76
2023/01/27 08:38:53;;;;;;;0.80;0.80;;;13.30;57.00;;;;;;5091646;28;20579;-76
2023/01/27 08:41:22;;;;;;;2.25;1.00;;;12.80;56.80;;;;;;5091305;28;20075;-75
2023/01/27 08:43:49;;;;;;;1.42;1.00;;;12.80;56.70;;;;;;5091124;28;20051;-75
2023/01/27 08:46:15;;;;;;;1.13;0.90;;;12.90;64.30;;;;;;5091523;28;20127;-75
2023/01/27 08:48:42;;;;;;;1.05;0.90;;;13.00;56.80;;;;;;5091505;28;20055;-76
2023/01/27 08:51:09;;;;;;;1.85;1.00;;;12.80;56.60;;;;;;5090642;28;20064;-75
2023/01/27 08:53:36;;;;;;;1.00;0.90;;;12.30;63.40;;;;;;5073995;28;20063;-75
2023/01/27 08:56:05;;;;;;;0.80;0.80;;;12.80;56.60;;;;;;5071375;28;20048;-76
2023/01/27 08:58:33;;;;;;;1.05;0.93;;;12.70;64.70;;;;;;5070966;28;20223;-76
2023/01/27 09:01:00;;;;;;;1.38;0.90;;;12.80;56.60;;;;;;5071270;28;20052;-75
2023/01/27 09:03:27;;;;;;;1.70;0.90;;;12.80;56.60;;;;;;5070471;28;20055;-75
2023/01/27 09:05:54;;;;;;;0.98;0.80;;;13.60;57.10;;;;;;5071232;28;20416;-75
2023/01/27 09:08:20;;;;;;;1.70;0.93;;;13.80;65.00;;;;;;5084616;28;20063;-76
2023/01/27 09:10:47;;;;;;;1.42;1.05;;;13.00;63.70;;;;;;5091172;28;20131;-75
2023/01/27 09:13:17;;;;;;;1.63;1.00;;;12.80;56.60;;;;;;5091607;28;20135;-75
2023/01/27 09:15:45;;;;;;;1.40;0.88;;;12.90;56.60;;;;;;5091837;28;20074;-75
2023/01/27 09:18:11;;;;;;;0.75;0.70;;;12.80;56.60;;;;;;5091233;28;20097;-75
2023/01/27 09:20:38;;;;;;;1.85;1.00;;;12.70;63.20;;;;;;5091496;28;20127;-75
2023/01/27 09:23:05;;;;;;;1.20;0.90;;;12.90;64.20;;;;;;5090822;28;20412;-75
2023/01/27 09:25:32;;;;;;;1.63;0.90;;;13.00;56.70;;;;;;5091362;28;20135;-75
2023/01/27 09:27:59;;;;;;;1.02;0.80;;;13.50;64.10;;;;;;5091042;28;20060;-75
2023/01/27 09:30:27;;;;;;;0.90;0.80;;;12.80;56.60;;;;;;5091779;28;20143;-75
2023/01/27 09:32:58;;;;;;;1.02;0.90;;;12.90;56.60;;;;;;5091218;28;20138;-75
2023/01/27 09:35:24;;;;;;;1.48;1.00;;;12.80;63.20;;;;;;5091605;28;20079;-75
2023/01/27 09:37:52;;;;;;;1.25;0.90;;;12.80;64.30;;;;;;5090168;28;20139;-75
2023/01/27 09:40:26;;;;;;;1.08;0.80;;;12.90;57.00;;;;;;5091319;28;20059;-75
2023/01/27 09:43:06;;;;;;;1.00;0.90;;;12.90;56.70;;;;;;5090681;28;20147;-75
2023/01/27 09:45:43;;;;;;;1.20;0.98;;;12.90;56.70;;;;;;5091195;28;20483;-74
2023/01/27 09:48:20;;;;;;;0.70;0.70;;;12.80;64.70;;;;;;5091541;28;20087;-74
2023/01/27 09:50:48;;;;;;;1.98;0.90;;;13.10;63.60;;;;;;5090755;28;20134;-75
2023/01/27 09:53:37;;;;;;;1.08;0.80;;;12.80;56.60;;;;;;5091044;28;20052;-74
2023/01/27 09:56:06;;;;;;;1.08;0.85;;;12.90;56.70;;;;;;5061626;28;20044;-75
2023/01/27 09:58:39;;;;;;;1.25;0.85;;;12.80;56.60;;;;;;5091094;28;20056;-75
2023/01/27 10:01:12;;;;;;;0.80;0.80;;;13.60;64.90;;;;;;5090868;28;20116;-75
2023/01/27 10:03:55;;;;;;;1.67;0.90;;;12.90;56.70;;;;;;5091384;28;20185;-75
2023/01/27 10:06:30;;;;;;;0.80;0.80;;;12.50;64.60;;;;;;5093939;28;20048;-75
2023/01/27 10:09:22;;;;;;;0.85;0.85;;;12.80;65.00;;;;;;5094795;28;20135;-74
2023/01/27 10:11:52;;;;;;;0.80;0.80;;;12.70;63.90;;;;;;5094902;28;20111;-74
2023/01/27 10:14:25;;;;;;;1.02;0.80;;;12.80;56.60;;;;;;5094485;28;20123;-75
2023/01/27 10:17:03;;;;;;;1.35;0.80;;;12.80;56.60;;;;;;5094669;28;20054;-75
2023/01/27 10:19:39;;;;;;;0.75;0.73;;;12.80;56.60;;;;;;5089909;28;20045;-75
2023/01/27 10:22:11;;;;;;;0.80;0.80;;;13.00;64.80;;;;;;5094510;28;20455;-75
2023/01/27 10:24:45;;;;;;;0.90;0.85;;;12.80;56.60;;;;;;5094373;28;20044;-74
2023/01/27 10:27:16;;;;;;;1.15;0.98;;;13.20;56.80;;;;;;5094266;28;20513;-75
2023/01/27 10:29:44;;;;;;;0.80;0.80;;;12.80;56.60;;;;;;5094648;28;20492;-75
2023/01/27 10:32:17;;;;;;;0.70;0.70;;;11.60;64.00;;;;;;5094040;28;20059;-75
2023/01/27 10:34:46;;;;;;;0.88;0.80;;;12.90;56.60;;;;;;5093616;28;20050;-75
2023/01/27 10:37:18;;;;;;;0.77;0.77;;;12.70;64.40;;;;;;5086306;28;20040;-75
2023/01/27 10:39:47;;;;;;;1.17;0.80;;;12.80;64.10;;;;;;5073966;28;20508;-75
2023/01/27 10:42:20;;;;;;;0.70;0.70;;;13.40;56.90;;;;;;5073772;28;20052;-75
2023/01/27 10:44:55;;;;;;;0.80;0.80;;;12.90;56.60;;;;;;5073720;28;20049;-75
2023/01/27 10:47:28;;;;;;;0.90;0.80;;;12.90;63.80;;;;;;5073974;28;20144;-75
2023/01/27 10:49:56;;;;;;;0.80;0.80;;;12.80;64.20;;;;;;5073830;28;20048;-75
2023/01/27 10:52:24;;;;;;;0.73;0.73;;;12.80;56.50;;;;;;5073520;28;20055;-75
2023/01/27 10:54:52;;;;;;;1.35;0.93;;;12.90;56.60;;;;;;5073660;28;20131;-75
2023/01/27 10:57:20;;;;;;;0.80;0.80;;;13.30;56.80;;;;;;5073784;28;20469;-75
2023/01/27 10:59:49;;;;;;;0.93;0.80;;;12.90;56.50;;;;;;5073902;28;20063;-74
2023/01/27 11:02:23;;;;;;;1.15;0.90;;;12.90;56.50;;;;;;5073060;28;20056;-75
2023/01/27 11:04:53;;;;;;;0.82;0.82;;;12.90;64.00;;;;;;5085363;28;20055;-75
2023/01/27 11:07:21;;;;;;;0.70;0.70;;;11.90;63.80;;;;;;5093602;28;20223;-75
2023/01/27 11:09:49;;;;;;;1.70;0.85;;;12.90;56.50;;;;;;5094115;28;20058;-75
2023/01/27 11:12:15;;;;;;;0.80;0.80;;;12.90;56.50;;;;;;5093347;28;20413;-74
2023/01/27 11:14:45;;;;;;;0.65;0.63;;;12.90;56.50;;;;;;5093873;28;20056;-75
2023/01/27 11:17:15;;;;;;;0.80;0.80;;;12.90;56.50;;;;;;5092567;28;20052;-75
2023/01/27 11:19:44;;;;;;;0.60;0.60;;;12.90;56.40;;;;;;5093250;28;20070;-75
2023/01/27 11:22:19;;;;;;;0.82;0.80;;;13.10;56.50;;;;;;5093323;28;20134;-74
2023/01/27 11:24:47;;;;;;;0.77;0.77;;;12.90;56.40;;;;;;5093024;28;20048;-74
2023/01/27 11:27:22;;;;;;;0.70;0.70;;;12.90;56.40;;;;;;5093410;28;20139;-75
2023/01/27 11:29:53;;;;;;;0.82;0.80;;;12.90;56.40;;;;;;5093426;28;20090;-75
2023/01/27 11:32:28;;;;;;;0.60;0.60;;;11.70;64.10;;;;;;5092299;28;20131;-74
2023/01/27 11:35:02;;;;;;;0.60;0.60;;;11.70;56.90;;;;;;5093284;28;20532;-75
2023/01/27 11:37:31;;;;;;;0.77;0.70;;;12.90;56.40;;;;;;5087783;28;20076;-75
2023/01/27 11:39:58;;;;;;;1.08;0.80;;;13.50;56.80;;;;;;5072683;28;20060;-75
2023/01/27 11:42:25;;;;;;;0.70;0.70;;;12.90;56.40;;;;;;5072778;28;20135;-75
2023/01/27 11:44:54;;;;;;;0.60;0.60;;;12.90;56.40;;;;;;5072557;28;20044;-75
2023/01/27 11:47:23;;;;;;;0.73;0.70;;;13.00;56.40;;;;;;5072833;28;20062;-75
2023/01/27 11:49:50;;;;;;;0.70;0.70;;;12.90;56.30;;;;;;5082859;28;20070;-75
2023/01/27 11:52:18;;;;;;;1.33;0.80;;;13.50;56.70;;;;;;5071713;28;20076;-75
2023/01/27 11:54:48;;;;;;;0.60;0.60;;;13.90;64.10;;;;;;5072333;28;20048;-75
2023/01/27 11:57:18;;;;;;;0.50;0.50;;;12.90;56.40;;;;;;5072212;28;20139;-75
2023/01/27 11:59:45;;;;;;;0.57;0.57;;;13.60;56.80;;;;;;5072601;28;20055;-75
2023/01/27 12:02:18;;;;;;;1.48;0.73;;;12.70;64.30;;;;;;5071944;28;20056;-75
2023/01/27 12:04:50;;;;;;;0.63;0.63;;;12.90;56.30;;;;;;5086495;28;20477;-75
2023/01/27 12:07:19;;;;;;;0.70;0.70;;;13.80;63.50;;;;;;5092380;28;20051;-75
2023/01/27 12:09:47;;;;;;;0.60;0.60;;;12.00;63.60;;;;;;5092522;28;20054;-75
2023/01/27 12:12:22;;;;;;;0.60;0.60;;;12.70;64.20;;;;;;5092381;28;20131;-74
2023/01/27 12:14:49;;;;;;;1.85;0.80;;;13.90;64.60;;;;;;5092606;28;20127;-74
2023/01/27 12:17:22;;;;;;;0.57;0.57;;;13.60;65.00;;;;;;5091586;28;20499;-75
2023/01/27 12:19:49;;;;;;;0.60;0.60;;;;;;;;;;5092144;28;20496;-75
2023/01/27 12:22:19;;;;;;;1.08;0.75;;;12.90;55.70;;;;;;5091750;28;20416;-74
2023/01/27 12:24:49;;;;;;;1.02;0.70;;;12.20;63.50;;;;;;5091978;28;20132;-75
2023/01/27 12:27:20;;;;;;;0.70;0.70;;;12.90;64.60;;;;;;5091214;28;20074;-74
2023/01/27 12:29:50;;;;;;;0.65;0.60;;;14.10;65.10;;;;;;5091971;28;20056;-75
2023/01/27 12:32:18;;;;;;;0.82;0.70;;;13.50;56.60;;;;;;5091136;28;20127;-75
2023/01/27 12:34:46;;;;;;;0.60;0.60;;;11.90;62.70;;;;;;5091430;28;20139;-75
2023/01/27 12:37:20;;;;;;;0.60;0.60;;;12.90;64.10;;;;;;5091395;28;20485;-75
2023/01/27 12:39:50;;;;;;;0.60;0.60;;;13.00;64.30;;;;;;5092170;28;20056;-75
2023/01/27 12:42:40;;;;;;;0.60;0.60;;;12.90;56.30;;;;;;5091518;28;20074;-75
2023/01/27 12:45:24;;;;;;;0.73;0.70;;;12.80;64.50;;;;;;5092022;28;20082;-75
2023/01/27 12:47:56;;;;;;;0.80;0.77;;;12.90;56.30;;;;;;5071532;28;20655;-75
2023/01/27 12:50:24;;;;;;;0.57;0.57;;;12.80;63.50;;;;;;5071715;28;20136;-75
2023/01/27 12:53:01;;;;;;;0.57;0.50;;;11.90;63.00;;;;;;5070634;28;20394;-75
2023/01/27 12:55:30;;;;;;;0.70;0.70;;;12.90;56.30;;;;;;5071635;28;20400;-75
2023/01/27 12:57:57;;;;;;;0.70;0.70;;;13.10;64.00;;;;;;5071090;28;20059;-75
2023/01/27 13:00:24;;;;;;;0.70;0.60;;;13.60;56.60;;;;;;5073064;28;20051;-74
2023/01/27 13:02:52;;;;;;;0.75;0.68;;;12.90;56.30;;;;;;5091117;28;20052;-75
2023/01/27 13:05:18;;;;;;;0.50;0.50;;;12.90;56.30;;;;;;5091584;28;20048;-75
2023/01/27 13:07:47;;;;;;;0.80;0.80;;;12.90;63.80;;;;;;5092112;28;20196;-75
2023/01/27 13:10:16;;;;;;;0.65;0.60;;;13.00;64.30;;;;;;5091494;28;20048;-75
2023/01/27 13:12:49;;;;;;;0.77;0.60;;;12.30;63.60;;;;;;5091148;28;20048;-75
2023/01/27 13:15:17;;;;;;;0.95;0.70;;;12.90;56.30;;;;;;5090290;28;20144;-75
2023/01/27 13:17:46;;;;;;;0.57;0.57;;;12.90;56.30;;;;;;5082733;28;20056;-75
2023/01/27 13:20:19;;;;;;;0.52;0.52;;;12.90;56.30;;;;;;5078571;28;20052;-75
2023/01/27 13:22:47;;;;;;;0.60;0.60;;;12.50;64.00;;;;;;5091022;28;20129;-75
2023/01/27 13:25:18;;;;;;;0.60;0.60;;;12.30;64.00;;;;;;5091040;28;20436;-75
2023/01/27 13:27:44;;;;;;;0.73;0.70;;;12.90;56.30;;;;;;5091352;28;20135;-75
2023/01/27 13:30:17;;;;;;;0.60;0.60;;;12.90;56.30;;;;;;5090501;28;20135;-75